sensor_id;sensor_type;location;lat;lon;timestamp;pressure;altitude;pressure_sealevel;temperature;humidity
26719;BME280;14326;50.794;6.060;2023-03-19T00:00:42;57030.06;;;-142.25;100.00
26719;BME280;14326;50.794;6.060;2023-03-19T00:03:11;57030.06;;;-142.25;100.00
26719;BME280;14326;50.794;6.060;2023-03-19T00:05:44;57030.06;;;-142.25;100.00
26719;BME280;14326;50.794;6.060;2023-03-19T00:08:15;57030.06;;;-142.25;100.00
26719;BME280;14326;50.794;6.060;2023-03-19T00:10:42;57030.06;;;-142.25;100.00
26719;BME280;14326;50.794;6.060;2023-03-19T00:13:19;57030.06;;;-142.25;100.00
26719;BME280;14326;50.794;6.060;2023-03-19T00:16:02;57030.06;;;-142.25;100.00
26719;BME280;14326;50.794;6.060;2023-03-19T00:18:30;57030.06;;;-142.25;100.00
26719;BME280;14326;50.794;6.060;2023-03-19T00:20:57;57030.06;;;-142.25;100.00
26719;BME280;14326;50.794;6.060;2023-03-19T00:23:32;57030.06;;;-142.25;100.00
26719;BME280;14326;50.794;6.060;2023-03-19T00:26:16;57030.06;;;-142.25;100.00
26719;BME280;14326;50.794;6.060;2023-03-19T00:28:45;57030.06;;;-142.25;100.00
26719;BME280;14326;50.794;6.060;2023-03-19T00:31:13;57030.06;;;-142.25;100.00
26719;BME280;14326;50.794;6.060;2023-03-19T00:33:43;57030.06;;;-142.25;100.00
26719;BME280;14326;50.794;6.060;2023-03-19T00:36:10;57030.06;;;-142.25;100.00
26719;BME280;14326;50.794;6.060;2023-03-19T00:41:34;57030.06;;;-142.25;100.00
26719;BME280;14326;50.794;6.060;2023-03-19T00:44:01;57030.06;;;-142.25;100.00
26719;BME280;14326;50.794;6.060;2023-03-19T00:46:29;57030.06;;;-142.25;100.00
26719;BME280;14326;50.794;6.060;2023-03-19T00:48:57;57030.06;;;-142.25;100.00
26719;BME280;14326;50.794;6.060;2023-03-19T00:51:24;57030.06;;;-142.25;100.00
26719;BME280;14326;50.794;6.060;2023-03-19T00:53:51;57030.06;;;-142.25;100.00
26719;BME280;14326;50.794;6.060;2023-03-19T00:56:18;57030.06;;;-142.25;100.00
26719;BME280;14326;50.794;6.060;2023-03-19T00:58:45;57030.06;;;-142.25;100.00
26719;BME280;14326;50.794;6.060;2023-03-19T01:01:23;57030.06;;;-142.25;100.00
26719;BME280;14326;50.794;6.060;2023-03-19T01:03:51;57030.06;;;-142.25;100.00
26719;BME280;14326;50.794;6.060;2023-03-19T01:06:20;57030.06;;;-142.25;100.00
26719;BME280;14326;50.794;6.060;2023-03-19T01:08:47;57030.06;;;-142.25;100.00
26719;BME280;14326;50.794;6.060;2023-03-19T01:11:15;57030.06;;;-142.25;100.00
26719;BME280;14326;50.794;6.060;2023-03-19T01:13:42;57030.06;;;-142.25;100.00
26719;BME280;14326;50.794;6.060;2023-03-19T01:16:09;57030.06;;;-142.25;100.00
26719;BME280;14326;50.794;6.060;2023-03-19T01:18:36;57030.06;;;-142.25;100.00
26719;BME280;14326;50.794;6.060;2023-03-19T01:21:03;57030.06;;;-142.25;100.00
26719;BME280;14326;50.794;6.060;2023-03-19T01:23:31;57030.06;;;-142.25;100.00
26719;BME280;14326;50.794;6.060;2023-03-19T01:25:58;57030.06;;;-142.25;100.00
26719;BME280;14326;50.794;6.060;2023-03-19T01:28:25;57030.06;;;-142.25;100.00
26719;BME280;14326;50.794;6.060;2023-03-19T01:30:51;57030.06;;;-142.25;100.00
26719;BME280;14326;50.794;6.060;2023-03-19T01:33:18;57030.06;;;-142.25;100.00
26719;BME280;14326;50.794;6.060;2023-03-19T01:35:45;57030.06;;;-142.25;100.00
26719;BME280;14326;50.794;6.060;2023-03-19T01:38:13;57030.06;;;-142.25;100.00
26719;BME280;14326;50.794;6.060;2023-03-19T01:40:44;57030.06;;;-142.25;100.00
26719;BME280;14326;50.794;6.060;2023-03-19T01:43:16;57030.06;;;-142.25;100.00
26719;BME280;14326;50.794;6.060;2023-03-19T01:45:44;57030.06;;;-142.25;100.00
26719;BME280;14326;50.794;6.060;2023-03-19T01:48:18;57030.06;;;-142.25;100.00
26719;BME280;14326;50.794;6.060;2023-03-19T01:50:47;57030.06;;;-142.25;100.00
26719;BME280;14326;50.794;6.060;2023-03-19T01:53:19;57030.06;;;-142.25;100.00
26719;BME280;14326;50.794;6.060;2023-03-19T01:55:49;57030.06;;;-142.25;100.00
26719;BME280;14326;50.794;6.060;2023-03-19T01:58:16;57030.06;;;-142.25;100.00
26719;BME280;14326;50.794;6.060;2023-03-19T02:00:44;57030.06;;;-142.25;100.00
26719;BME280;14326;50.794;6.060;2023-03-19T02:03:14;57030.06;;;-142.25;100.00
26719;BME280;14326;50.794;6.060;2023-03-19T02:05:48;57030.06;;;-142.25;100.00
26719;BME280;14326;50.794;6.060;2023-03-19T02:08:18;57030.06;;;-142.25;100.00
26719;BME280;14326;50.794;6.060;2023-03-19T02:10:49;57030.06;;;-142.25;100.00
26719;BME280;14326;50.794;6.060;2023-03-19T02:13:16;57030.06;;;-142.25;100.00
26719;BME280;14326;50.794;6.060;2023-03-19T02:15:43;57030.06;;;-142.25;100.00
26719;BME280;14326;50.794;6.060;2023-03-19T02:18:10;57030.06;;;-142.25;100.00
26719;BME280;14326;50.794;6.060;2023-03-19T02:20:49;57030.06;;;-142.25;100.00
26719;BME280;14326;50.794;6.060;2023-03-19T02:23:25;57030.06;;;-142.25;100.00
26719;BME280;14326;50.794;6.060;2023-03-19T02:26:05;57030.06;;;-142.25;100.00
26719;BME280;14326;50.794;6.060;2023-03-19T02:28:33;57030.06;;;-142.25;100.00
26719;BME280;14326;50.794;6.060;2023-03-19T02:31:02;57030.06;;;-142.25;100.00
26719;BME280;14326;50.794;6.060;2023-03-19T02:33:28;57030.06;;;-142.25;100.00
26719;BME280;14326;50.794;6.060;2023-03-19T02:36:00;57030.06;;;-142.25;100.00
26719;BME280;14326;50.794;6.060;2023-03-19T02:38:29;57030.06;;;-142.25;100.00
26719;BME280;14326;50.794;6.060;2023-03-19T02:41:00;57030.06;;;-142.25;100.00
26719;BME280;14326;50.794;6.060;2023-03-19T02:43:49;57030.06;;;-142.25;100.00
26719;BME280;14326;50.794;6.060;2023-03-19T02:46:17;57030.06;;;-142.25;100.00
26719;BME280;14326;50.794;6.060;2023-03-19T02:48:44;57030.06;;;-142.25;100.00
26719;BME280;14326;50.794;6.060;2023-03-19T02:51:20;57030.06;;;-142.25;100.00
26719;BME280;14326;50.794;6.060;2023-03-19T02:54:08;57030.06;;;-142.25;100.00
26719;BME280;14326;50.794;6.060;2023-03-19T02:56:38;57030.06;;;-142.25;100.00
26719;BME280;14326;50.794;6.060;2023-03-19T02:59:07;57030.06;;;-142.25;100.00
26719;BME280;14326;50.794;6.060;2023-03-19T03:01:33;57030.06;;;-142.25;100.00
26719;BME280;14326;50.794;6.060;2023-03-19T03:04:00;57030.06;;;-142.25;100.00
26719;BME280;14326;50.794;6.060;2023-03-19T03:09:54;57030.06;;;-142.25;100.00
26719;BME280;14326;50.794;6.060;2023-03-19T03:12:29;57030.06;;;-142.25;100.00
26719;BME280;14326;50.794;6.060;2023-03-19T03:14:57;57030.06;;;-142.25;100.00
26719;BME280;14326;50.794;6.060;2023-03-19T03:17:24;57030.06;;;-142.25;100.00
26719;BME280;14326;50.794;6.060;2023-03-19T03:19:51;57030.06;;;-142.25;100.00
26719;BME280;14326;50.794;6.060;2023-03-19T03:22:28;57030.06;;;-142.25;100.00
26719;BME280;14326;50.794;6.060;2023-03-19T03:25:09;57030.06;;;-142.25;100.00
26719;BME280;14326;50.794;6.060;2023-03-19T03:27:36;57030.06;;;-142.25;100.00
26719;BME280;14326;50.794;6.060;2023-03-19T03:30:05;57030.06;;;-142.25;100.00
26719;BME280;14326;50.794;6.060;2023-03-19T03:32:35;57030.06;;;-142.25;100.00
26719;BME280;14326;50.794;6.060;2023-03-19T03:35:02;57030.06;;;-142.25;100.00
26719;BME280;14326;50.794;6.060;2023-03-19T03:37:29;57030.06;;;-142.25;100.00
26719;BME280;14326;50.794;6.060;2023-03-19T03:39:56;57030.06;;;-142.25;100.00
26719;BME280;14326;50.794;6.060;2023-03-19T03:42:23;57030.06;;;-142.25;100.00
26719;BME280;14326;50.794;6.060;2023-03-19T03:44:49;57030.06;;;-142.25;100.00
26719;BME280;14326;50.794;6.060;2023-03-19T03:47:30;57030.06;;;-142.25;100.00
26719;BME280;14326;50.794;6.060;2023-03-19T03:49:58;57030.06;;;-142.25;100.00
26719;BME280;14326;50.794;6.060;2023-03-19T03:52:25;57030.06;;;-142.25;100.00
26719;BME280;14326;50.794;6.060;2023-03-19T03:54:55;57030.06;;;-142.25;100.00
26719;BME280;14326;50.794;6.060;2023-03-19T03:57:22;57030.06;;;-142.25;100.00
26719;BME280;14326;50.794;6.060;2023-03-19T03:59:49;57030.06;;;-142.25;100.00
26719;BME280;14326;50.794;6.060;2023-03-19T04:02:15;57030.06;;;-142.25;100.00
26719;BME280;14326;50.794;6.060;2023-03-19T04:04:43;57030.06;;;-142.25;100.00
26719;BME280;14326;50.794;6.060;2023-03-19T04:07:10;57030.06;;;-142.25;100.00
26719;BME280;14326;50.794;6.060;2023-03-19T04:09:37;57030.06;;;-142.25;100.00
26719;BME280;14326;50.794;6.060;2023-03-19T04:12:04;57030.06;;;-142.25;100.00
26719;BME280;14326;50.794;6.060;2023-03-19T04:14:31;57030.06;;;-142.25;100.00
26719;BME280;14326;50.794;6.060;2023-03-19T04:17:00;57030.06;;;-142.25;100.00
26719;BME280;14326;50.794;6.060;2023-03-19T04:19:27;57030.06;;;-142.25;100.00
26719;BME280;14326;50.794;6.060;2023-03-19T04:21:55;57030.06;;;-142.25;100.00
26719;BME280;14326;50.794;6.060;2023-03-19T04:24:22;57030.06;;;-142.25;100.00
26719;BME280;14326;50.794;6.060;2023-03-19T04:26:50;57030.06;;;-142.25;100.00
26719;BME280;14326;50.794;6.060;2023-03-19T04:29:17;57030.06;;;-142.25;100.00
26719;BME280;14326;50.794;6.060;2023-03-19T04:31:47;57030.06;;;-142.25;100.00
26719;BME280;14326;50.794;6.060;2023-03-19T04:34:13;57030.06;;;-142.25;100.00
26719;BME280;14326;50.794;6.060;2023-03-19T04:36:57;57030.06;;;-142.25;100.00
26719;BME280;14326;50.794;6.060;2023-03-19T04:39:30;57030.06;;;-142.25;100.00
26719;BME280;14326;50.794;6.060;2023-03-19T04:41:57;57030.06;;;-142.25;100.00
26719;BME280;14326;50.794;6.060;2023-03-19T04:44:25;57030.06;;;-142.25;100.00
26719;BME280;14326;50.794;6.060;2023-03-19T04:46:52;57030.06;;;-142.25;100.00
26719;BME280;14326;50.794;6.060;2023-03-19T04:49:18;57030.06;;;-142.25;100.00
26719;BME280;14326;50.794;6.060;2023-03-19T04:51:45;57030.06;;;-142.25;100.00
26719;BME280;14326;50.794;6.060;2023-03-19T04:54:14;57030.06;;;-142.25;100.00
26719;BME280;14326;50.794;6.060;2023-03-19T04:56:41;57030.06;;;-142.25;100.00
26719;BME280;14326;50.794;6.060;2023-03-19T04:59:07;57030.06;;;-142.25;100.00
26719;BME280;14326;50.794;6.060;2023-03-19T05:01:34;57030.06;;;-142.25;100.00
26719;BME280;14326;50.794;6.060;2023-03-19T05:04:02;57030.06;;;-142.25;100.00
26719;BME280;14326;50.794;6.060;2023-03-19T05:06:29;57030.06;;;-142.25;100.00
26719;BME280;14326;50.794;6.060;2023-03-19T05:08:56;57030.06;;;-142.25;100.00
26719;BME280;14326;50.794;6.060;2023-03-19T05:11:24;57030.06;;;-142.25;100.00
26719;BME280;14326;50.794;6.060;2023-03-19T05:13:51;57030.06;;;-142.25;100.00
26719;BME280;14326;50.794;6.060;2023-03-19T05:16:18;57030.06;;;-142.25;100.00
26719;BME280;14326;50.794;6.060;2023-03-19T05:18:44;57030.06;;;-142.25;100.00
26719;BME280;14326;50.794;6.060;2023-03-19T05:21:12;57030.06;;;-142.25;100.00
26719;BME280;14326;50.794;6.060;2023-03-19T05:23:38;57030.06;;;-142.25;100.00
26719;BME280;14326;50.794;6.060;2023-03-19T05:26:05;57030.06;;;-142.25;100.00
26719;BME280;14326;50.794;6.060;2023-03-19T05:28:34;57030.06;;;-142.25;100.00
26719;BME280;14326;50.794;6.060;2023-03-19T05:31:02;57030.06;;;-142.25;100.00
26719;BME280;14326;50.794;6.060;2023-03-19T05:33:29;57030.06;;;-142.25;100.00
26719;BME280;14326;50.794;6.060;2023-03-19T05:35:56;57030.06;;;-142.25;100.00
26719;BME280;14326;50.794;6.060;2023-03-19T05:38:23;57030.06;;;-142.25;100.00
26719;BME280;14326;50.794;6.060;2023-03-19T05:40:49;57030.06;;;-142.25;100.00
26719;BME280;14326;50.794;6.060;2023-03-19T05:43:16;57030.06;;;-142.25;100.00
26719;BME280;14326;50.794;6.060;2023-03-19T05:45:49;57030.06;;;-142.25;100.00
26719;BME280;14326;50.794;6.060;2023-03-19T05:48:16;57030.06;;;-142.25;100.00
26719;BME280;14326;50.794;6.060;2023-03-19T05:50:43;57030.06;;;-142.25;100.00
26719;BME280;14326;50.794;6.060;2023-03-19T05:53:09;57030.06;;;-142.25;100.00
26719;BME280;14326;50.794;6.060;2023-03-19T05:55:36;57030.06;;;-142.25;100.00
26719;BME280;14326;50.794;6.060;2023-03-19T05:58:04;57030.06;;;-142.25;100.00
26719;BME280;14326;50.794;6.060;2023-03-19T06:00:32;57030.06;;;-142.25;100.00
26719;BME280;14326;50.794;6.060;2023-03-19T06:03:00;57030.06;;;-142.25;100.00
26719;BME280;14326;50.794;6.060;2023-03-19T06:06:10;99295.13;;;10.94;100.00
26719;BME280;14326;50.794;6.060;2023-03-19T06:08:37;99293.34;;;10.93;100.00
26719;BME280;14326;50.794;6.060;2023-03-19T06:11:04;99296.91;;;10.89;100.00
26719;BME280;14326;50.794;6.060;2023-03-19T06:13:31;99291.53;;;10.85;100.00
26719;BME280;14326;50.794;6.060;2023-03-19T06:15:57;99291.59;;;10.89;100.00
26719;BME280;14326;50.794;6.060;2023-03-19T06:18:24;99301.31;;;10.86;100.00
26719;BME280;14326;50.794;6.060;2023-03-19T06:20:51;99291.53;;;10.80;100.00
26719;BME280;14326;50.794;6.060;2023-03-19T06:23:19;99295.09;;;10.81;100.00
26719;BME280;14326;50.794;6.060;2023-03-19T06:25:46;99296.88;;;10.82;100.00
26719;BME280;14326;50.794;6.060;2023-03-19T06:28:12;99298.63;;;10.80;100.00
26719;BME280;14326;50.794;6.060;2023-03-19T06:30:39;99300.41;;;10.78;100.00
26719;BME280;14326;50.794;6.060;2023-03-19T06:33:06;99304.81;;;10.79;100.00
26719;BME280;14326;50.794;6.060;2023-03-19T06:35:33;99307.47;;;10.79;100.00
26719;BME280;14326;50.794;6.060;2023-03-19T06:38:00;99303.06;;;10.79;100.00
26719;BME280;14326;50.794;6.060;2023-03-19T06:40:28;99312.81;;;10.85;100.00
26719;BME280;14326;50.794;6.060;2023-03-19T06:42:54;99308.41;;;10.87;100.00
26719;BME280;14326;50.794;6.060;2023-03-19T06:45:23;99311.06;;;10.87;100.00
26719;BME280;14326;50.794;6.060;2023-03-19T06:47:49;99316.41;;;10.91;100.00
26719;BME280;14326;50.794;6.060;2023-03-19T06:50:17;99314.59;;;10.86;100.00
26719;BME280;14326;50.794;6.060;2023-03-19T06:52:44;99323.50;;;10.89;100.00
26719;BME280;14326;50.794;6.060;2023-03-19T06:55:11;99323.50;;;10.89;100.00
26719;BME280;14326;50.794;6.060;2023-03-19T06:57:39;99331.47;;;10.91;100.00
26719;BME280;14326;50.794;6.060;2023-03-19T07:00:07;99325.28;;;10.92;100.00
26719;BME280;14326;50.794;6.060;2023-03-19T07:02:36;99334.13;;;10.91;100.00
26719;BME280;14326;50.794;6.060;2023-03-19T07:05:03;99334.16;;;10.94;100.00
26719;BME280;14326;50.794;6.060;2023-03-19T07:07:30;99330.63;;;10.95;100.00
26719;BME280;14326;50.794;6.060;2023-03-19T07:09:57;99337.69;;;10.96;100.00
26719;BME280;14326;50.794;6.060;2023-03-19T07:12:24;99332.41;;;10.99;100.00
26719;BME280;14326;50.794;6.060;2023-03-19T07:14:53;99339.53;;;11.06;100.00
26719;BME280;14326;50.794;6.060;2023-03-19T07:17:21;99340.41;;;11.11;100.00
26719;BME280;14326;50.794;6.060;2023-03-19T07:19:48;99345.72;;;11.08;100.00
26719;BME280;14326;50.794;6.060;2023-03-19T07:22:15;99342.16;;;11.04;100.00
26719;BME280;14326;50.794;6.060;2023-03-19T07:24:42;99339.50;;;11.04;100.00
26719;BME280;14326;50.794;6.060;2023-03-19T07:27:09;99337.75;;;11.05;100.00
26719;BME280;14326;50.794;6.060;2023-03-19T07:29:43;99331.53;;;11.14;100.00
26719;BME280;14326;50.794;6.060;2023-03-19T07:32:27;99339.56;;;11.23;100.00
26719;BME280;14326;50.794;6.060;2023-03-19T07:34:54;99343.13;;;11.31;100.00
26719;BME280;14326;50.794;6.060;2023-03-19T07:37:21;99336.94;;;11.47;100.00
26719;BME280;14326;50.794;6.060;2023-03-19T07:42:48;99333.38;;;12.06;100.00
26719;BME280;14326;50.794;6.060;2023-03-19T07:45:16;99324.44;;;12.32;100.00
26719;BME280;14326;50.794;6.060;2023-03-19T07:47:44;99334.97;;;12.75;100.00
26719;BME280;14326;50.794;6.060;2023-03-19T07:50:12;99341.09;;;13.01;100.00
26719;BME280;14326;50.794;6.060;2023-03-19T07:52:38;99340.13;;;13.18;98.55
26719;BME280;14326;50.794;6.060;2023-03-19T07:55:05;99344.53;;;13.25;99.36
26719;BME280;14326;50.794;6.060;2023-03-19T07:57:32;99342.75;;;13.25;97.63
26719;BME280;14326;50.794;6.060;2023-03-19T07:59:59;99339.19;;;13.22;97.73
26719;BME280;14326;50.794;6.060;2023-03-19T08:02:25;99339.25;;;13.19;97.28
26719;BME280;14326;50.794;6.060;2023-03-19T08:04:55;99347.06;;;13.46;96.86
26719;BME280;14326;50.794;6.060;2023-03-19T08:07:26;99345.28;;;13.48;95.07
26719;BME280;14326;50.794;6.060;2023-03-19T08:09:53;99354.25;;;13.36;95.19
26719;BME280;14326;50.794;6.060;2023-03-19T08:12:21;99355.16;;;13.35;95.96
26719;BME280;14326;50.794;6.060;2023-03-19T08:14:48;99352.53;;;13.28;96.90
26719;BME280;14326;50.794;6.060;2023-03-19T08:17:38;99358.81;;;13.15;96.29
26719;BME280;14326;50.794;6.060;2023-03-19T08:20:13;99367.78;;;13.01;97.42
26719;BME280;14326;50.794;6.060;2023-03-19T08:22:42;99362.50;;;12.89;97.74
26719;BME280;14326;50.794;6.060;2023-03-19T08:25:09;99362.53;;;12.80;97.48
26719;BME280;14326;50.794;6.060;2023-03-19T08:27:36;99365.22;;;12.72;98.05
26719;BME280;14326;50.794;6.060;2023-03-19T08:30:04;99369.72;;;12.60;99.68
26719;BME280;14326;50.794;6.060;2023-03-19T08:32:31;99369.72;;;12.51;100.00
26719;BME280;14326;50.794;6.060;2023-03-19T08:34:58;99370.66;;;12.48;100.00
26719;BME280;14326;50.794;6.060;2023-03-19T08:37:27;99363.53;;;12.47;100.00
26719;BME280;14326;50.794;6.060;2023-03-19T08:39:54;99364.41;;;12.51;100.00
26719;BME280;14326;50.794;6.060;2023-03-19T08:42:22;99367.00;;;12.77;100.00
26719;BME280;14326;50.794;6.060;2023-03-19T08:44:49;99366.78;;;13.30;99.04
26719;BME280;14326;50.794;6.060;2023-03-19T08:52:35;99356.38;;;15.57;85.41
26719;BME280;14326;50.794;6.060;2023-03-19T08:55:02;99361.19;;;15.91;82.22
26719;BME280;14326;50.794;6.060;2023-03-19T08:57:30;99366.66;;;15.85;82.38
26719;BME280;14326;50.794;6.060;2023-03-19T08:59:57;99363.41;;;15.65;81.28
26719;BME280;14326;50.794;6.060;2023-03-19T09:02:24;99370.97;;;15.37;83.69
26719;BME280;14326;50.794;6.060;2023-03-19T09:04:51;99380.97;;;15.21;82.95
26719;BME280;14326;50.794;6.060;2023-03-19T09:07:17;99383.00;;;15.02;84.84
26719;BME280;14326;50.794;6.060;2023-03-19T09:09:45;99386.69;;;14.95;83.80
26719;BME280;14326;50.794;6.060;2023-03-19T09:12:14;99394.03;;;14.78;84.52
26719;BME280;14326;50.794;6.060;2023-03-19T09:14:41;99391.50;;;14.64;85.20
26719;BME280;14326;50.794;6.060;2023-03-19T09:17:09;99399.78;;;14.40;87.50
26719;BME280;14326;50.794;6.060;2023-03-19T09:19:42;99393.63;;;14.29;87.87
26719;BME280;14326;50.794;6.060;2023-03-19T09:22:13;99396.34;;;14.23;88.05
26719;BME280;14326;50.794;6.060;2023-03-19T09:24:43;99399.13;;;14.09;87.17
26719;BME280;14326;50.794;6.060;2023-03-19T09:27:13;99401.94;;;13.94;88.35
26719;BME280;14326;50.794;6.060;2023-03-19T09:29:42;99400.13;;;13.99;89.34
26719;BME280;14326;50.794;6.060;2023-03-19T09:32:10;99400.22;;;13.90;89.22
26719;BME280;14326;50.794;6.060;2023-03-19T09:34:39;99404.63;;;13.92;90.01
26719;BME280;14326;50.794;6.060;2023-03-19T09:37:07;99408.25;;;13.85;88.05
26719;BME280;14326;50.794;6.060;2023-03-19T15:38:46;99504.06;;;14.49;78.74
26719;BME280;14326;50.794;6.060;2023-03-19T15:41:16;99514.81;;;14.46;80.02
26719;BME280;14326;50.794;6.060;2023-03-19T15:43:43;99502.38;;;14.36;80.92
26719;BME280;14326;50.794;6.060;2023-03-19T15:46:13;99514.88;;;14.32;81.96
26719;BME280;14326;50.794;6.060;2023-03-19T15:48:43;99523.84;;;14.27;81.80
26719;BME280;14326;50.794;6.060;2023-03-19T15:51:14;99528.34;;;14.20;82.37
26719;BME280;14326;50.794;6.060;2023-03-19T15:53:44;99527.47;;;14.14;83.38
26719;BME280;14326;50.794;6.060;2023-03-19T15:56:12;99534.63;;;14.15;84.02
26719;BME280;14326;50.794;6.060;2023-03-19T15:58:43;99533.75;;;14.10;84.02
26719;BME280;14326;50.794;6.060;2023-03-19T16:01:11;99528.44;;;14.04;83.37
26719;BME280;14326;50.794;6.060;2023-03-19T16:03:40;99530.28;;;14.02;82.69
26719;BME280;14326;50.794;6.060;2023-03-19T16:06:12;99524.03;;;14.00;82.97
26719;BME280;14326;50.794;6.060;2023-03-19T16:08:47;99527.59;;;14.00;82.75
26719;BME280;14326;50.794;6.060;2023-03-19T16:11:25;99529.38;;;13.98;83.12
26719;BME280;14326;50.794;6.060;2023-03-19T16:13:55;99530.28;;;14.00;83.41
26719;BME280;14326;50.794;6.060;2023-03-19T16:16:31;99529.38;;;14.00;83.31
26719;BME280;14326;50.794;6.060;2023-03-19T16:19:28;99531.13;;;14.04;83.29
26719;BME280;14326;50.794;6.060;2023-03-19T16:21:55;99526.66;;;14.03;83.64
26719;BME280;14326;50.794;6.060;2023-03-19T16:24:24;99531.19;;;13.94;84.31
26719;BME280;14326;50.794;6.060;2023-03-19T16:26:55;99527.59;;;13.99;84.45
26719;BME280;14326;50.794;6.060;2023-03-19T16:29:24;99528.53;;;13.94;84.83
26719;BME280;14326;50.794;6.060;2023-03-19T16:31:56;99532.97;;;13.96;84.82
26719;BME280;14326;50.794;6.060;2023-03-19T16:34:29;99538.34;;;13.96;85.35
26719;BME280;14326;50.794;6.060;2023-03-19T16:36:56;99532.09;;;13.95;85.72
26719;BME280;14326;50.794;6.060;2023-03-19T16:39:31;99546.38;;;13.88;86.17
26719;BME280;14326;50.794;6.060;2023-03-19T16:42:38;99551.72;;;13.86;86.28
26719;BME280;14326;50.794;6.060;2023-03-19T16:45:23;99560.69;;;13.84;86.51
26719;BME280;14326;50.794;6.060;2023-03-19T16:47:51;99556.25;;;13.75;86.54
26719;BME280;14326;50.794;6.060;2023-03-19T16:50:20;99556.28;;;13.68;86.43
26719;BME280;14326;50.794;6.060;2023-03-19T16:52:48;99564.28;;;13.68;86.17
26719;BME280;14326;50.794;6.060;2023-03-19T16:55:20;99570.56;;;13.62;86.66
26719;BME280;14326;50.794;6.060;2023-03-19T16:57:54;99575.03;;;13.56;86.18
26719;BME280;14326;50.794;6.060;2023-03-19T17:00:22;99583.06;;;13.54;86.57
26719;BME280;14326;50.794;6.060;2023-03-19T17:02:50;99585.75;;;13.51;86.92
26719;BME280;14326;50.794;6.060;2023-03-19T17:05:17;99591.09;;;13.48;86.43
26719;BME280;14326;50.794;6.060;2023-03-19T17:07:43;99599.13;;;13.48;86.90
26719;BME280;14326;50.794;6.060;2023-03-19T17:10:12;99604.50;;;13.42;86.67
26719;BME280;14326;50.794;6.060;2023-03-19T17:12:42;99610.69;;;13.44;87.37
26719;BME280;14326;50.794;6.060;2023-03-19T17:15:13;99614.31;;;13.31;87.98
26719;BME280;14326;50.794;6.060;2023-03-19T17:17:42;99620.53;;;13.33;88.24
26719;BME280;14326;50.794;6.060;2023-03-19T17:20:14;99624.09;;;13.30;88.42
26719;BME280;14326;50.794;6.060;2023-03-19T17:22:41;99622.31;;;13.28;88.64
26719;BME280;14326;50.794;6.060;2023-03-19T17:25:11;99626.78;;;13.29;88.96
26719;BME280;14326;50.794;6.060;2023-03-19T17:27:38;99631.22;;;13.28;89.41
26719;BME280;14326;50.794;6.060;2023-03-19T17:30:07;99635.69;;;13.25;90.05
26719;BME280;14326;50.794;6.060;2023-03-19T17:32:34;99640.13;;;13.17;90.41
26719;BME280;14326;50.794;6.060;2023-03-19T17:35:02;99645.47;;;13.17;89.82
26719;BME280;14326;50.794;6.060;2023-03-19T17:37:29;99658.81;;;13.10;90.55
26719;BME280;14326;50.794;6.060;2023-03-19T17:39:56;99654.34;;;12.99;91.43
26719;BME280;14326;50.794;6.060;2023-03-19T17:42:23;99663.25;;;12.98;92.11
26719;BME280;14326;50.794;6.060;2023-03-19T17:44:50;99671.28;;;12.93;92.33
26719;BME280;14326;50.794;6.060;2023-03-19T17:47:19;99676.59;;;12.90;92.21
26719;BME280;14326;50.794;6.060;2023-03-19T17:49:46;99674.81;;;12.88;92.92
26719;BME280;14326;50.794;6.060;2023-03-19T17:52:17;99676.59;;;12.81;92.99
26719;BME280;14326;50.794;6.060;2023-03-19T17:54:45;99681.94;;;12.81;93.49
26719;BME280;14326;50.794;6.060;2023-03-19T17:57:13;99682.81;;;12.80;93.36
26719;BME280;14326;50.794;6.060;2023-03-19T17:59:40;99679.25;;;12.67;93.19
26719;BME280;14326;50.794;6.060;2023-03-19T18:02:23;99683.69;;;12.67;93.88
26719;BME280;14326;50.794;6.060;2023-03-19T18:04:53;99685.47;;;12.63;93.18
26719;BME280;14326;50.794;6.060;2023-03-19T18:07:21;99697.03;;;12.64;93.17
26719;BME280;14326;50.794;6.060;2023-03-19T18:09:48;99697.00;;;12.55;93.18
26719;BME280;14326;50.794;6.060;2023-03-19T18:12:15;99701.47;;;12.48;93.60
26719;BME280;14326;50.794;6.060;2023-03-19T18:14:41;99697.00;;;12.43;93.97
26719;BME280;14326;50.794;6.060;2023-03-19T18:17:12;99707.66;;;12.49;94.04
26719;BME280;14326;50.794;6.060;2023-03-19T18:19:44;99698.78;;;12.47;94.73
26719;BME280;14326;50.794;6.060;2023-03-19T18:22:13;99713.00;;;12.43;95.12
26719;BME280;14326;50.794;6.060;2023-03-19T18:24:44;99711.22;;;12.45;95.28
26719;BME280;14326;50.794;6.060;2023-03-19T18:27:10;99712.97;;;12.44;95.95
26719;BME280;14326;50.794;6.060;2023-03-19T18:29:54;99713.00;;;12.43;96.14
26719;BME280;14326;50.794;6.060;2023-03-19T18:32:26;99720.06;;;12.38;96.70
26719;BME280;14326;50.794;6.060;2023-03-19T18:35:08;99724.53;;;12.31;97.41
26719;BME280;14326;50.794;6.060;2023-03-19T18:37:36;99724.50;;;12.32;97.50
26719;BME280;14326;50.794;6.060;2023-03-19T18:40:04;99727.19;;;12.29;97.71
26719;BME280;14326;50.794;6.060;2023-03-19T18:42:31;99730.75;;;12.35;97.53
26719;BME280;14326;50.794;6.060;2023-03-19T18:44:58;99728.06;;;12.33;97.56
26719;BME280;14326;50.794;6.060;2023-03-19T18:47:25;99730.75;;;12.35;97.95
26719;BME280;14326;50.794;6.060;2023-03-19T18:50:15;99727.16;;;12.32;98.08
26719;BME280;14326;50.794;6.060;2023-03-19T18:52:43;99736.94;;;12.27;98.52
26719;BME280;14326;50.794;6.060;2023-03-19T18:55:11;99743.16;;;12.23;99.24
26719;BME280;14326;50.794;6.060;2023-03-19T18:57:40;99743.13;;;12.22;99.16
26719;BME280;14326;50.794;6.060;2023-03-19T19:00:16;99752.91;;;12.20;99.36
26719;BME280;14326;50.794;6.060;2023-03-19T19:02:44;99751.13;;;12.20;99.54
26719;BME280;14326;50.794;6.060;2023-03-19T19:05:19;99756.44;;;12.20;99.52
26719;BME280;14326;50.794;6.060;2023-03-19T19:07:48;99765.34;;;12.21;99.86
26719;BME280;14326;50.794;6.060;2023-03-19T19:10:15;99768.00;;;12.19;99.70